Time;durP1;ratioP1;P1;durP2;ratioP2;P2;SDS_P1;SDS_P2;PMS_P1;PMS_P2;Temp;Humidity;BMP_temperature;BMP_pressure;BME280_temperature;BME280_humidity;BME280_pressure;Samples;Min_cycle;Max_cycle;Signal;HPM_P1;HPM_P2
2022/05/03 00:01:28;;;;;;;8.80;5.18;;;;;;;10.03;56.56;99409.03;5155252;27;20089;-82
2022/05/03 00:04:20;;;;;;;9.98;5.68;;;;;;;10.00;56.22;99424.72;5153941;27;20503;-83
2022/05/03 00:07:08;;;;;;;7.30;4.82;;;;;;;9.97;56.92;99436.88;5154924;27;20415;-82
2022/05/03 00:09:49;;;;;;;7.60;5.13;;;;;;;9.86;56.57;99428.22;5154445;27;20072;-83
2022/05/03 00:12:26;;;;;;;10.48;5.10;;;;;;;9.67;57.08;99399.50;5154759;27;20054;-85
2022/05/03 00:15:00;;;;;;;8.95;4.88;;;;;;;9.80;57.22;99410.81;5155576;27;20047;-82
2022/05/03 00:17:30;;;;;;;9.63;5.15;;;;;;;9.80;57.72;99424.72;5154965;27;20448;-83
2022/05/03 00:19:59;;;;;;;10.38;4.95;;;;;;;9.64;57.15;99382.13;5136462;27;20096;-81
2022/05/03 00:22:25;;;;;;;8.77;5.65;;;;;;;9.77;58.18;99409.06;5164058;27;20107;-81
2022/05/03 00:24:56;;;;;;;11.70;5.25;;;;;;;9.77;57.64;99398.66;5168285;27;20050;-79
2022/05/03 00:27:25;;;;;;;13.48;5.43;;;;;;;9.74;58.22;99395.16;5167419;27;20494;-81
2022/05/03 00:29:53;;;;;;;9.70;5.60;;;;;;;9.59;57.76;99383.88;5161231;27;20099;-81
2022/05/03 00:32:22;;;;;;;14.02;5.97;;;;;;;9.72;58.23;99407.34;5155910;27;20141;-83
2022/05/03 00:34:50;;;;;;;9.95;5.93;;;;;;;9.60;58.49;99401.25;5155338;27;20088;-82
2022/05/03 00:37:17;;;;;;;9.73;5.65;;;;;;;9.08;58.44;99310.03;5154546;27;20082;-84
2022/05/03 00:39:44;;;;;;;9.77;5.70;;;;;;;9.28;58.77;99337.81;5154078;27;20051;-81
2022/05/03 00:42:20;;;;;;;7.85;5.85;;;;;;;9.58;58.87;99407.34;5165871;27;20050;-81
2022/05/03 00:45:05;;;;;;;8.75;5.63;;;;;;;9.54;58.44;99397.78;5160528;27;20046;-81
2022/05/03 00:47:53;;;;;;;9.05;5.95;;;;;;;9.50;58.98;99412.53;5148447;27;20074;-81
2022/05/03 00:50:32;;;;;;;10.75;6.18;;;;;;;9.50;59.13;99394.28;5143450;27;20055;-81
2022/05/03 00:53:26;;;;;;;10.57;5.80;;;;;;;9.46;59.14;99391.69;5133829;27;20047;-81
2022/05/03 00:56:12;;;;;;;12.43;6.65;;;;;;;9.38;59.27;99383.88;5133865;27;20051;-82
2022/05/03 00:59:02;;;;;;;12.13;6.07;;;;;;;9.35;59.58;99394.28;5133982;27;20530;-82
2022/05/03 01:01:54;;;;;;;11.05;6.07;;;;;;;9.26;59.93;99379.50;5134656;28;20051;-82
2022/05/03 01:05:03;;;;;;;12.50;6.10;;;;;;;9.31;60.12;99376.91;5134779;28;20138;-81
2022/05/03 01:08:07;;;;;;;14.25;6.38;;;;;;;9.14;60.53;99356.94;5121045;27;20047;-81
2022/05/03 01:10:49;;;;;;;9.52;6.30;;;;;;;9.26;60.86;99371.69;5147332;27;20047;-80
2022/05/03 01:13:32;;;;;;;10.40;6.03;;;;;;;9.27;60.71;99391.69;5141198;27;20057;-83
2022/05/03 01:16:09;;;;;;;11.63;5.95;;;;;;;9.26;61.07;99376.91;5137790;27;20123;-83
2022/05/03 01:18:53;;;;;;;11.77;5.57;;;;;;;9.24;61.12;99381.25;5137547;27;20051;-84
2022/05/03 01:21:39;;;;;;;8.02;5.60;;;;;;;9.18;60.83;99366.50;5137427;27;20051;-82
2022/05/03 01:24:58;;;;;;;8.98;5.60;;;;;;;9.16;61.55;99364.72;5137408;27;20059;-84
2022/05/03 01:27:59;;;;;;;9.93;5.88;;;;;;;9.01;61.70;99357.75;5119383;27;20047;-82
2022/05/03 01:30:31;;;;;;;8.85;5.60;;;;;;;9.06;61.72;99363.88;5135895;27;20467;-82
2022/05/03 01:33:08;;;;;;;10.27;5.60;;;;;;;8.86;62.07;99321.25;5137143;27;20051;-82
2022/05/03 01:35:39;;;;;;;8.52;5.43;;;;;;;8.98;62.00;99350.81;5137236;27;20524;-83
2022/05/03 01:38:19;;;;;;;11.82;5.50;;;;;;;9.13;61.64;99357.78;5136943;27;20194;-83
2022/05/03 01:41:13;;;;;;;7.88;5.43;;;;;;;8.89;61.69;99318.69;5137421;27;20116;-83
2022/05/03 01:43:56;;;;;;;8.07;5.32;;;;;;;8.99;61.80;99325.63;5137168;27;20047;-82
2022/05/03 01:46:27;;;;;;;8.50;5.50;;;;;;;9.23;61.67;99343.91;5137324;27;20051;-81
2022/05/03 01:52:22;;;;;;;7.72;5.03;;;;;;;9.26;61.71;99363.88;5136817;27;20442;-82
2022/05/03 01:55:02;;;;;;;9.90;5.93;;;;;;;9.17;61.71;99328.25;5136558;27;20401;-82
2022/05/03 01:57:54;;;;;;;11.18;5.60;;;;;;;9.39;61.88;99341.28;5138208;27;20055;-83
2022/05/03 02:00:22;;;;;;;9.52;6.03;;;;;;;9.31;61.56;99311.75;5136459;27;20123;-83
2022/05/03 02:03:22;;;;;;;9.20;5.53;;;;;;;9.45;61.31;99330.88;5102902;27;20434;-81
2022/05/03 02:06:10;;;;;;;9.15;5.75;;;;;;;9.61;61.14;99339.53;5147330;27;20089;-79
2022/05/03 02:09:04;;;;;;;8.43;5.90;;;;;;;9.68;60.75;99341.28;5143650;27;20055;-82
2022/05/03 02:11:50;;;;;;;8.68;5.60;;;;;;;9.76;61.01;99343.88;5140867;27;20043;-82
2022/05/03 02:14:44;;;;;;;13.82;5.80;;;;;;;9.80;60.48;99335.16;5138360;27;20070;-83
2022/05/03 02:17:39;;;;;;;7.85;5.60;;;;;;;9.81;61.08;99343.00;5136791;27;20051;-84
2022/05/03 02:20:45;;;;;;;8.75;5.47;;;;;;;9.82;60.68;99334.28;5140818;27;20080;-82
2022/05/03 02:23:30;;;;;;;11.27;5.80;;;;;;;9.54;60.71;99278.69;5147276;27;20078;-82
2022/05/03 02:26:18;;;;;;;11.07;5.75;;;;;;;9.83;60.22;99323.00;5148762;27;20050;-82
2022/05/03 02:28:51;;;;;;;11.02;6.30;;;;;;;10.05;60.91;99330.75;5149449;27;20047;-81
2022/05/03 02:31:21;;;;;;;8.68;5.65;;;;;;;10.02;60.36;99331.66;5149191;27;20062;-80
2022/05/03 02:34:08;;;;;;;;;;;;;;;9.96;60.21;99334.28;5143459;27;20107;-83
2022/05/03 02:36:43;;;;;;;9.02;5.55;;;;;;;10.07;60.43;99330.72;5120737;27;20276;-82
2022/05/03 02:39:12;;;;;;;10.35;5.53;;;;;;;9.87;60.60;99289.91;5135583;27;20046;-82
2022/05/03 02:41:41;;;;;;;11.93;5.50;;;;;;;10.01;60.34;99289.91;5144309;27;20146;-83
2022/05/03 02:44:12;;;;;;;10.55;5.57;;;;;;;10.35;59.21;99323.75;5134328;27;20108;-84
2022/05/03 02:47:00;;;;;;;8.75;5.65;;;;;;;10.56;59.08;99333.19;5135602;27;20512;-84
2022/05/03 02:50:02;;;;;;;9.52;5.78;;;;;;;10.67;58.88;99331.41;5135714;27;20055;-80
2022/05/03 02:52:42;;;;;;;10.70;5.78;;;;;;;11.35;57.44;99318.72;5134626;27;20050;-81
2022/05/03 02:55:47;;;;;;;7.40;5.53;;;;;;;13.90;51.68;99311.84;5135591;27;20109;-84
2022/05/03 02:58:31;;;;;;;12.95;5.85;;;;;;;16.41;45.56;99312.00;5135598;27;20043;-81
2022/05/03 03:01:49;;;;;;;9.57;6.15;;;;;;;18.30;41.91;99297.03;5116739;27;20061;-82
2022/05/03 03:04:50;;;;;;;7.75;5.40;;;;;;;20.13;38.10;99284.31;5134978;27;20051;-83
2022/05/03 03:07:18;;;;;;;11.23;6.00;;;;;;;20.97;35.51;99274.22;5135089;27;20458;-84
2022/05/03 03:10:18;;;;;;;11.40;5.82;;;;;;;22.04;33.93;99292.72;5135723;27;20051;-84
2022/05/03 03:13:14;;;;;;;8.45;6.07;;;;;;;22.43;33.81;99280.06;5131533;27;20522;-86
2022/05/03 03:15:41;;;;;;;8.38;6.53;;;;;;;23.52;31.05;99277.41;5135986;27;20051;-87
2022/05/03 03:18:13;;;;;;;13.88;6.25;;;;;;;24.03;30.42;99282.41;5135257;27;20141;-84
2022/05/03 03:20:45;;;;;;;11.25;6.78;;;;;;;23.90;29.89;99239.63;5135797;27;20047;-85
2022/05/03 03:23:20;;;;;;;10.23;6.45;;;;;;;23.10;30.32;99228.38;5133887;27;20043;-82
2022/05/03 03:25:48;;;;;;;8.80;6.45;;;;;;;23.20;30.49;99244.66;5135157;27;20051;-83
2022/05/03 03:28:20;;;;;;;8.38;6.45;;;;;;;23.48;30.03;99235.88;5135065;27;20138;-82
2022/05/03 03:30:50;;;;;;;7.60;6.15;;;;;;;23.28;30.29;99273.53;5135256;27;20047;-83
2022/05/03 03:33:19;;;;;;;10.02;6.47;;;;;;;22.79;30.76;99263.00;5134159;27;20104;-84
2022/05/03 03:35:47;;;;;;;9.27;6.47;;;;;;;22.93;30.86;99256.88;5134670;27;20499;-86
2022/05/03 03:38:15;;;;;;;6.97;5.82;;;;;;;23.17;30.18;99220.03;5133677;27;20058;-85
2022/05/03 03:40:45;;;;;;;8.60;6.30;;;;;;;24.19;28.74;99242.28;5134282;27;20392;-83
2022/05/03 03:43:13;;;;;;;7.75;5.55;;;;;;;25.08;27.71;99260.63;5134209;27;20047;-85
2022/05/03 03:45:41;;;;;;;11.05;6.07;;;;;;;25.98;26.22;99257.28;5134973;27;20104;-83
2022/05/03 03:48:09;;;;;;;9.98;5.97;;;;;;;26.33;25.57;99225.38;5134370;27;20051;-84
2022/05/03 03:50:38;;;;;;;9.65;6.00;;;;;;;26.11;26.06;99242.09;5135477;27;20065;-82
2022/05/03 03:53:06;;;;;;;9.07;5.70;;;;;;;24.02;28.76;99259.31;5134355;27;20408;-82
2022/05/03 03:55:34;;;;;;;8.18;5.85;;;;;;;21.40;32.37;99221.63;5134061;27;20043;-83
2022/05/03 03:58:02;;;;;;;6.35;5.20;;;;;;;20.02;35.33;99253.84;5134305;27;20495;-82
2022/05/03 04:00:29;;;;;;;8.90;5.68;;;;;;;19.22;36.87;99236.09;5132840;27;20510;-86
2022/05/03 04:02:57;;;;;;;7.43;5.53;;;;;;;18.71;37.54;99242.53;5133151;27;20088;-81
2022/05/03 04:05:26;;;;;;;10.88;5.70;;;;;;;18.58;38.05;99221.03;5132788;27;20385;-81
2022/05/03 04:07:54;;;;;;;7.30;5.63;;;;;;;18.52;38.34;99239.78;5135092;27;20055;-80
2022/05/03 04:10:21;;;;;;;8.80;5.40;;;;;;;18.09;39.11;99212.34;5142673;27;20059;-81
2022/05/03 04:12:48;;;;;;;5.93;4.80;;;;;;;17.90;39.93;99250.94;5152287;27;20080;-80
2022/05/03 04:15:16;;;;;;;10.57;5.57;;;;;;;17.58;40.38;99231.78;5138911;27;20051;-83
2022/05/03 04:17:44;;;;;;;6.90;4.72;;;;;;;17.27;41.23;99239.91;5115384;27;20051;-84
2022/05/03 04:20:18;;;;;;;7.72;4.97;;;;;;;16.83;41.31;99168.38;5133722;27;20100;-86
2022/05/03 04:22:50;;;;;;;9.35;4.90;;;;;;;17.18;41.58;99249.84;5116500;28;20067;-84
2022/05/03 04:25:16;;;;;;;6.50;4.93;;;;;;;17.03;42.05;99231.03;5133899;27;20046;-83
2022/05/03 04:27:43;;;;;;;7.95;4.90;;;;;;;17.03;42.29;99223.13;5134813;27;20047;-86
2022/05/03 04:30:11;;;;;;;6.57;4.82;;;;;;;16.96;42.17;99198.72;5137432;27;20082;-88
2022/05/03 04:32:38;;;;;;;6.80;5.00;;;;;;;17.40;41.89;99239.44;5137687;28;20074;-83
2022/05/03 04:35:06;;;;;;;11.88;5.20;;;;;;;17.42;41.73;99223.53;5155619;27;20045;-83
2022/05/03 04:37:33;;;;;;;6.72;5.05;;;;;;;17.26;41.71;99198.59;5154681;27;20067;-85
2022/05/03 04:40:00;;;;;;;8.23;5.53;;;;;;;17.17;41.81;99211.19;5138818;28;20055;-86
2022/05/03 04:42:29;;;;;;;7.07;5.05;;;;;;;17.22;42.31;99213.66;5136461;27;20054;-86
2022/05/03 04:44:58;;;;;;;8.52;5.13;;;;;;;17.60;41.72;99224.69;5119845;28;20431;-86
2022/05/03 04:47:26;;;;;;;6.82;5.00;;;;;;;17.87;40.78;99191.13;5137120;27;20134;-84
2022/05/03 04:49:53;;;;;;;7.72;4.80;;;;;;;17.62;41.48;99222.84;5137588;27;20083;-85
2022/05/03 04:52:21;;;;;;;7.13;4.93;;;;;;;16.98;42.20;99152.91;5139979;27;20047;-86
2022/05/03 04:54:48;;;;;;;8.63;5.68;;;;;;;17.04;42.77;99199.31;5117760;28;20066;-88
2022/05/03 04:57:16;;;;;;;9.35;5.07;;;;;;;17.22;42.77;99218.94;5117937;28;20078;-85
2022/05/03 04:59:43;;;;;;;7.18;4.85;;;;;;;17.43;42.20;99211.22;5118491;28;20499;-87
2022/05/03 05:02:10;;;;;;;6.25;5.28;;;;;;;16.82;42.39;99119.19;5115984;28;20055;-87
2022/05/03 05:04:37;;;;;;;8.27;5.10;;;;;;;16.83;42.66;99148.16;5141975;27;20058;-86
2022/05/03 05:07:04;;;;;;;7.50;5.10;;;;;;;17.43;42.53;99227.06;5159172;27;20131;-88
2022/05/03 05:09:32;;;;;;;10.00;5.22;;;;;;;17.30;42.89;99232.75;5141311;27;20161;-87
2022/05/03 05:11:59;;;;;;;7.97;5.13;;;;;;;16.96;42.97;99188.16;5158151;27;20050;-84
2022/05/03 05:14:27;;;;;;;8.07;4.75;;;;;;;16.86;43.67;99199.91;5139573;27;20050;-87
2022/05/03 05:16:55;;;;;;;6.90;4.78;;;;;;;16.71;43.49;99172.25;5119596;27;20135;-86
2022/05/03 05:19:22;;;;;;;5.57;4.68;;;;;;;16.82;44.02;99203.56;5136759;27;20138;-86
2022/05/03 05:21:50;;;;;;;6.18;4.80;;;;;;;16.93;43.76;99191.78;5120217;27;20074;-89
2022/05/03 05:24:17;;;;;;;6.18;4.82;;;;;;;16.87;43.63;99186.69;5136299;27;20082;-85
2022/05/03 05:26:45;;;;;;;8.82;6.13;;;;;;;16.73;44.21;99213.47;5137640;27;20051;-85
2022/05/03 05:29:14;;;;;;;7.63;4.60;;;;;;;16.89;44.28;99190.16;5137943;27;20065;-86
2022/05/03 05:31:41;;;;;;;6.10;4.65;;;;;;;17.57;42.88;99193.97;5139403;27;20103;-82
2022/05/03 05:34:08;;;;;;;7.35;4.60;;;;;;;17.88;42.16;99187.59;5139196;27;20050;-84
2022/05/03 05:36:36;;;;;;;6.25;5.38;;;;;;;17.61;42.61;99192.06;5144511;27;20051;-86
2022/05/03 05:39:05;;;;;;;6.68;4.82;;;;;;;17.69;42.28;99191.78;5139158;27;20051;-88
2022/05/03 05:41:32;;;;;;;12.13;5.20;;;;;;;17.88;42.00;99192.03;5137157;27;20143;-85
2022/05/03 05:43:59;;;;;;;8.88;4.60;;;;;;;17.78;41.32;99120.97;5138122;27;20055;-84
2022/05/03 05:46:27;;;;;;;6.10;4.78;;;;;;;17.96;41.85;99171.44;5146536;27;20118;-82
2022/05/03 05:48:54;;;;;;;5.60;4.82;;;;;;;17.96;42.12;99189.94;5151540;27;20066;-82
2022/05/03 05:51:21;;;;;;;7.05;5.35;;;;;;;18.08;41.96;99184.19;5113118;27;20066;-82
2022/05/03 05:53:48;;;;;;;9.98;4.88;;;;;;;18.32;41.50;99157.72;5147655;27;20087;-83
2022/05/03 05:56:15;;;;;;;61.88;10.15;;;;;;;18.82;40.73;99154.84;5136723;27;20525;-84
2022/05/03 05:58:47;;;;;;;18.38;6.00;;;;;;;18.66;40.63;99153.75;5136283;27;20496;-84
2022/05/03 06:01:14;;;;;;;13.50;5.10;;;;;;;18.31;41.30;99161.31;5136445;27;20104;-83
2022/05/03 06:03:42;;;;;;;13.02;5.30;;;;;;;17.94;41.68;99133.63;5135190;27;20070;-82
2022/05/03 06:06:10;;;;;;;9.68;5.03;;;;;;;17.75;42.33;99120.25;5140233;27;20051;-82
2022/05/03 06:08:37;;;;;;;7.32;4.63;;;;;;;17.97;42.10;99152.88;5155107;27;20062;-81
2022/05/03 06:11:04;;;;;;;9.05;4.95;;;;;;;17.77;42.08;99097.28;5156027;27;20071;-81
2022/05/03 06:13:31;;;;;;;8.98;4.95;;;;;;;17.99;41.90;99144.91;5158227;27;20051;-82
2022/05/03 06:16:10;;;;;;;5.82;4.80;;;;;;;17.87;41.98;99163.88;5162714;27;20054;-81
2022/05/03 06:18:38;;;;;;;7.45;5.10;;;;;;;17.48;42.84;99141.47;5144852;27;20043;-80
2022/05/03 06:21:07;;;;;;;15.40;5.30;;;;;;;16.90;43.37;99096.91;5136270;27;20500;-81
2022/05/03 06:23:36;;;;;;;8.48;4.88;;;;;;;16.78;44.06;99140.34;5135914;27;20039;-84
2022/05/03 06:26:05;;;;;;;10.60;5.40;;;;;;;16.53;44.93;99145.56;5135788;27;20488;-81
2022/05/03 06:28:42;;;;;;;10.82;5.20;;;;;;;16.44;45.16;99134.47;5129573;27;20051;-81
2022/05/03 06:31:10;;;;;;;8.23;4.85;;;;;;;16.31;45.31;99134.84;5135113;27;20461;-81
2022/05/03 06:33:38;;;;;;;8.13;5.15;;;;;;;16.63;44.85;99145.25;5136500;27;20047;-82
2022/05/03 06:36:13;;;;;;;10.13;4.75;;;;;;;17.34;43.30;99136.69;5135857;27;20423;-82
2022/05/03 06:38:46;;;;;;;8.70;4.80;;;;;;;17.74;42.34;99126.44;5135493;27;20050;-82
2022/05/03 06:41:16;;;;;;;9.85;4.70;;;;;;;18.26;41.51;99108.59;5136508;27;20050;-80
2022/05/03 06:43:43;;;;;;;13.67;5.77;;;;;;;19.18;39.94;99125.09;5136590;27;20134;-81
2022/05/03 06:46:10;;;;;;;9.70;5.20;;;;;;;19.66;39.08;99110.63;5135712;27;20067;-81
2022/05/03 06:48:38;;;;;;;6.80;5.22;;;;;;;19.83;38.47;99086.88;5132690;27;20099;-82
2022/05/03 06:51:05;;;;;;;7.70;4.82;;;;;;;19.73;38.40;99093.53;5134990;27;20058;-79
2022/05/03 06:53:33;;;;;;;7.07;4.78;;;;;;;19.69;38.52;99096.34;5135269;27;20047;-80
2022/05/03 06:55:59;;;;;;;11.20;5.20;;;;;;;19.90;38.28;99111.28;5132555;27;20100;-82
2022/05/03 06:58:26;;;;;;;11.05;5.28;;;;;;;19.98;38.21;99090.59;5145751;27;20047;-79
2022/05/03 07:00:54;;;;;;;7.93;4.82;;;;;;;19.53;38.80;99088.22;5142508;27;20504;-80
2022/05/03 07:03:21;;;;;;;12.23;4.90;;;;;;;19.79;38.89;99105.63;5136069;27;20520;-82
2022/05/03 07:05:48;;;;;;;8.50;4.70;;;;;;;19.73;38.57;99105.91;5133349;27;20068;-83
2022/05/03 07:08:15;;;;;;;13.50;4.68;;;;;;;19.18;39.05;99056.25;5134437;27;20447;-80
2022/05/03 07:10:44;;;;;;;6.30;4.80;;;;;;;18.98;39.48;99102.16;5131130;27;20043;-82
2022/05/03 07:13:14;;;;;;;8.18;4.88;;;;;;;18.68;40.01;99094.56;5129214;27;20052;-82
2022/05/03 07:15:43;;;;;;;40.47;8.60;;;;;;;18.88;40.33;99096.38;5131553;27;20134;-83
2022/05/03 07:23:42;;;;;;;9.00;4.10;;;;;;;18.37;39.63;99068.53;5133252;27;20075;-86
2022/05/03 07:26:08;;;;;;;6.78;4.18;;;;;;;18.77;39.15;99091.50;5144023;27;20078;-79
2022/05/03 07:28:36;;;;;;;7.75;3.90;;;;;;;18.77;38.73;99086.22;5145800;27;20491;-79
2022/05/03 07:31:03;;;;;;;5.38;4.13;;;;;;;18.59;38.80;99060.56;5154229;27;20050;-82
2022/05/03 07:33:30;;;;;;;8.70;3.70;;;;;;;18.53;38.47;99064.31;5155126;27;20057;-81
2022/05/03 07:36:03;;;;;;;6.18;3.80;;;;;;;18.87;37.73;99054.13;5155552;27;20055;-82
2022/05/03 07:38:31;;;;;;;7.22;3.90;;;;;;;19.34;37.17;99069.69;5155178;27;20136;-81
2022/05/03 07:41:00;;;;;;;;;;;;;;;19.61;37.31;99049.88;5155235;27;20050;-81
2022/05/03 07:43:26;;;;;;;10.90;4.07;;;;;;;19.63;36.40;99033.91;5155510;27;20302;-82
2022/05/03 07:45:56;;;;;;;9.27;4.05;;;;;;;19.12;36.99;99012.41;5141187;27;20069;-81
2022/05/03 07:48:25;;;;;;;16.88;4.60;;;;;;;19.33;37.06;99017.66;5138441;27;20126;-82
2022/05/03 07:50:54;;;;;;;10.07;4.45;;;;;;;19.67;36.61;99032.84;5134164;27;20499;-81
2022/05/03 07:53:21;;;;;;;5.05;4.20;;;;;;;19.53;36.86;99022.00;5134192;27;20062;-83
2022/05/03 07:55:50;;;;;;;17.90;4.88;;;;;;;19.47;36.33;98998.47;5132092;27;20069;-84
2022/05/03 07:58:21;;;;;;;22.48;5.55;;;;;;;19.86;35.88;98979.00;5134358;27;20050;-85
2022/05/03 08:00:49;;;;;;;17.02;5.18;;;;;;;19.63;36.35;99004.78;5132699;27;20043;-84
2022/05/03 08:03:16;;;;;;;7.35;4.88;;;;;;;19.30;36.82;99008.06;5136732;27;20047;-83
2022/05/03 08:05:44;;;;;;;16.60;4.60;;;;;;;18.90;36.44;98962.22;5146675;27;20051;-81
2022/05/03 08:08:11;;;;;;;10.32;4.90;;;;;;;18.91;36.44;98966.59;5138116;27;20039;-81
2022/05/03 08:10:38;;;;;;;7.43;4.25;;;;;;;18.85;36.73;98993.34;5134451;27;20054;-81
2022/05/03 08:13:05;;;;;;;21.52;4.70;;;;;;;18.47;35.86;98976.44;5135398;27;20043;-81
2022/05/03 08:15:35;;;;;;;11.73;4.50;;;;;;;18.03;36.43;98973.91;5142767;27;20081;-81
2022/05/03 08:18:03;;;;;;;12.77;5.72;;;;;;;17.92;37.09;99003.41;5135693;27;20055;-79
2022/05/03 08:20:32;;;;;;;;;;;;;;;17.40;37.85;98991.28;5136435;27;20075;-81
2022/05/03 08:23:00;;;;;;;9.13;4.07;;;;;;;17.60;37.03;98977.31;5139238;27;19923;-81
2022/05/03 08:25:28;;;;;;;15.13;5.18;;;;;;;18.15;36.33;98983.94;5134086;27;20137;-80
2022/05/03 08:27:57;;;;;;;17.90;4.60;;;;;;;18.72;35.01;99005.34;5136408;28;20077;-82
2022/05/03 08:30:26;;;;;;;21.15;4.65;;;;;;;18.69;34.28;98968.44;5133473;28;20544;-81
2022/05/03 08:32:54;;;;;;;10.13;4.18;;;;;;;18.67;33.71;98976.47;5133708;28;20147;-81
2022/05/03 08:35:24;;;;;;;20.30;5.28;;;;;;;18.60;33.63;98959.13;5133505;27;20055;-83
2022/05/03 08:43:25;;;;;;;17.38;4.22;;;;;;;18.96;32.74;98988.41;5138140;27;20050;-81
2022/05/03 08:45:52;;;;;;;19.42;4.63;;;;;;;19.17;32.39;98981.28;5138064;27;20055;-83
2022/05/03 08:48:27;;;;;;;19.83;4.85;;;;;;;19.29;31.89;98971.91;5133873;27;20133;-83
2022/05/03 08:50:54;;;;;;;15.18;4.15;;;;;;;19.23;31.84;98932.50;5138859;27;20043;-81
2022/05/03 08:53:21;;;;;;;20.25;5.50;;;;;;;19.60;31.14;98958.09;5131562;27;20495;-83
2022/05/03 08:55:50;;;;;;;21.23;8.13;;;;;;;19.51;31.17;98966.50;5133668;27;20142;-82
2022/05/03 08:58:19;;;;;;;18.17;7.40;;;;;;;19.60;31.01;98970.50;5132319;27;20046;-81
2022/05/03 09:00:46;;;;;;;20.45;9.25;;;;;;;19.54;30.59;98968.13;5131773;27;20679;-81
2022/05/03 09:03:15;;;;;;;20.40;5.53;;;;;;;19.42;30.42;98932.47;5131300;28;20100;-82
2022/05/03 09:05:46;;;;;;;12.10;5.80;;;;;;;19.46;30.54;98949.94;5116898;28;20484;-81
2022/05/03 09:08:21;;;;;;;15.48;6.45;;;;;;;19.27;30.80;98951.75;5126293;27;20050;-82
2022/05/03 09:10:49;;;;;;;11.30;5.63;;;;;;;19.04;30.87;98884.88;5131217;28;20107;-82
2022/05/03 09:13:36;;;;;;;11.27;3.75;;;;;;;19.30;30.71;98928.63;5130626;28;20389;-82
2022/05/03 09:16:13;;;;;;;21.40;3.88;;;;;;;19.75;30.13;98938.00;5129031;28;20054;-82
2022/05/03 09:18:41;;;;;;;8.90;3.10;;;;;;;20.00;29.50;98916.44;5131430;27;20039;-81
2022/05/03 09:24:14;;;;;;;8.82;3.70;;;;;;;19.42;29.92;98924.53;5131148;27;20062;-82
2022/05/03 09:26:42;;;;;;;13.98;4.13;;;;;;;19.28;30.25;98927.00;5131847;27;20054;-81
2022/05/03 09:29:11;;;;;;;9.68;3.75;;;;;;;19.36;30.35;98920.41;5133237;27;20100;-82
2022/05/03 09:31:41;;;;;;;7.63;3.45;;;;;;;19.30;30.18;98907.47;5132650;27;20142;-82
2022/05/03 09:34:26;;;;;;;8.65;3.90;;;;;;;19.26;30.10;98867.97;5137540;27;20153;-82
2022/05/03 09:37:00;;;;;;;24.15;4.38;;;;;;;19.38;30.10;98928.25;5135800;27;20096;-82
2022/05/03 09:39:43;;;;;;;7.47;3.75;;;;;;;19.53;29.91;98916.06;5131001;27;20153;-82
2022/05/03 09:42:11;;;;;;;19.02;3.90;;;;;;;20.20;29.36;98927.81;5135609;27;20047;-83
2022/05/03 09:44:51;;;;;;;9.27;3.40;;;;;;;20.20;29.02;98910.13;5148133;27;20047;-83
2022/05/03 09:47:24;;;;;;;12.15;3.75;;;;;;;19.79;29.38;98865.38;5157045;27;20043;-83
2022/05/03 09:49:53;;;;;;;9.10;3.53;;;;;;;19.87;29.35;98903.88;5156786;27;20085;-83
2022/05/03 09:52:29;;;;;;;21.52;4.57;;;;;;;19.83;28.86;98904.03;5157697;27;20062;-83
2022/05/03 09:55:07;;;;;;;7.88;3.55;;;;;;;19.87;28.64;98912.66;5156483;27;20058;-82
2022/05/03 09:57:38;;;;;;;21.83;4.82;;;;;;;19.64;28.65;98884.66;5157307;27;20076;-83
2022/05/03 10:00:10;;;;;;;17.02;6.38;;;;;;;19.57;28.75;98851.44;5155980;27;20471;-82
2022/05/03 10:02:44;;;;;;;12.82;5.38;;;;;;;19.79;28.40;98898.97;5157277;27;20047;-82
2022/05/03 10:05:24;;;;;;;23.95;5.45;;;;;;;19.45;28.84;98895.28;5156532;27;20137;-82
2022/05/03 10:07:53;;;;;;;10.43;6.18;;;;;;;19.35;28.94;98884.25;5155949;27;20047;-82
2022/05/03 10:10:24;;;;;;;23.77;5.50;;;;;;;19.31;28.77;98850.91;5157407;27;20058;-83
2022/05/03 10:12:51;;;;;;;6.22;4.10;;;;;;;19.31;28.82;98863.28;5155601;27;20051;-83
2022/05/03 10:21:19;;;;;;;8.65;3.30;;;;;;;20.10;27.96;98876.22;5157166;27;20050;-84
2022/05/03 10:24:12;;;;;;;9.20;3.42;;;;;;;20.53;27.31;98863.34;5168039;27;20076;-83
2022/05/03 10:26:56;;;;;;;11.15;3.13;;;;;;;20.73;26.21;98864.97;5165076;27;20447;-84
2022/05/03 10:29:26;;;;;;;9.93;3.30;;;;;;;21.03;25.55;98859.78;5157890;27;20125;-83
2022/05/03 10:32:05;;;;;;;11.20;3.10;;;;;;;21.01;25.23;98861.66;5173661;27;20555;-83
2022/05/03 10:34:45;;;;;;;34.20;3.90;;;;;;;21.11;25.29;98867.31;5157186;27;20463;-83
2022/05/03 10:37:18;;;;;;;8.60;3.33;;;;;;;20.89;25.15;98852.59;5155976;27;20430;-84
2022/05/03 10:39:55;;;;;;;15.73;3.53;;;;;;;21.02;24.96;98869.53;5156254;27;20069;-83
2022/05/03 10:42:30;;;;;;;5.57;2.90;;;;;;;20.81;25.30;98847.69;5156470;27;20062;-83
2022/05/03 10:45:05;;;;;;;8.45;3.10;;;;;;;20.84;25.59;98836.03;5162338;27;20107;-83
2022/05/03 10:47:53;;;;;;;8.38;3.75;;;;;;;20.54;25.71;98839.41;5157332;27;20051;-84
2022/05/03 10:50:28;;;;;;;;;;;;;;;20.18;26.59;98845.72;5155600;27;20487;-84
2022/05/03 10:52:59;;;;;;;8.02;3.20;;;;;;;20.47;25.78;98832.69;5155989;27;20497;-83
2022/05/03 10:55:33;;;;;;;10.95;3.10;;;;;;;20.62;25.64;98823.09;5138367;27;20103;-84
2022/05/03 10:58:25;;;;;;;10.95;3.63;;;;;;;20.08;26.16;98811.81;5155243;27;20047;-83
2022/05/03 11:01:21;;;;;;;6.60;2.92;;;;;;;20.09;26.28;98817.03;5156462;27;20095;-83
2022/05/03 11:03:57;;;;;;;37.47;4.60;;;;;;;20.47;25.74;98838.00;5157091;27;20057;-84
2022/05/03 11:06:28;;;;;;;12.98;3.50;;;;;;;20.12;26.25;98830.13;5157419;27;20146;-84
2022/05/03 11:11:42;;;;;;;8.35;3.20;;;;;;;19.99;26.43;98799.91;5170552;27;20054;-83
2022/05/03 11:14:21;;;;;;;13.80;3.42;;;;;;;20.27;26.37;98809.06;5167261;27;20464;-83
2022/05/03 11:17:04;;;;;;;16.10;3.33;;;;;;;20.35;26.37;98817.44;5162055;27;20064;-81
2022/05/03 11:19:34;;;;;;;4.13;3.00;;;;;;;20.30;26.06;98803.56;5160155;27;20051;-83
2022/05/03 11:22:15;;;;;;;11.65;3.30;;;;;;;20.20;26.30;98805.88;5162768;27;20071;-84
2022/05/03 11:24:49;;;;;;;8.82;3.17;;;;;;;20.57;26.09;98817.16;5168062;27;20046;-83
2022/05/03 11:27:19;;;;;;;3.03;2.72;;;;;;;20.77;25.64;98784.25;5170917;27;20110;-82
2022/05/03 11:29:55;;;;;;;12.48;3.00;;;;;;;21.00;25.16;98794.44;5165161;27;20050;-83
2022/05/03 11:32:39;;;;;;;12.52;3.47;;;;;;;20.82;25.21;98804.28;5165846;27;20054;-83
2022/05/03 11:35:11;;;;;;;7.55;3.08;;;;;;;20.41;25.84;98803.84;5165514;27;20048;-83
2022/05/03 11:38:00;;;;;;;12.73;3.20;;;;;;;20.03;26.21;98794.34;5157072;27;20058;-83
2022/05/03 11:40:32;;;;;;;19.85;10.20;;;;;;;20.06;25.76;98769.47;5152943;27;20092;-83
2022/05/03 11:43:04;;;;;;;8.95;4.28;;;;;;;20.39;25.35;98787.16;5155379;27;20526;-87
2022/05/03 11:45:36;;;;;;;114.22;9.38;;;;;;;20.37;24.87;98778.44;5151558;27;20054;-82
2022/05/03 11:48:04;;;;;;;12.95;2.78;;;;;;;20.39;25.01;98777.44;5135351;27;20518;-83
2022/05/03 11:56:09;;;;;;;26.77;3.80;;;;;;;20.18;24.61;98754.72;5134337;27;20142;-81
2022/05/03 11:58:40;;;;;;;20.63;4.07;;;;;;;20.44;24.60;98761.25;5135349;27;20051;-83
2022/05/03 12:01:12;;;;;;;16.52;8.00;;;;;;;20.57;24.75;98754.38;5170550;27;20047;-82
2022/05/03 12:03:56;;;;;;;9.07;3.47;;;;;;;20.75;24.56;98759.59;5154490;27;20065;-85
2022/05/03 12:06:23;;;;;;;10.02;3.47;;;;;;;20.73;24.50;98748.22;5153986;27;20476;-82
2022/05/03 12:08:52;;;;;;;5.40;2.78;;;;;;;20.48;24.70;98746.91;5153175;27;20069;-82
2022/05/03 12:11:21;;;;;;;12.98;4.65;;;;;;;20.85;24.85;98760.78;5147120;27;20047;-83
2022/05/03 12:13:49;;;;;;;34.28;5.78;;;;;;;20.36;24.48;98703.31;5133924;27;20058;-81
2022/05/03 12:16:21;;;;;;;28.58;6.88;;;;;;;20.46;24.17;98719.59;5131978;27;20511;-84
2022/05/03 12:18:49;;;;;;;17.48;7.75;;;;;;;20.41;24.51;98751.69;5133581;27;20053;-85
2022/05/03 12:21:25;;;;;;;13.10;4.70;;;;;;;20.19;24.74;98728.09;5132637;27;20055;-84
2022/05/03 12:23:59;;;;;;;20.30;8.18;;;;;;;20.16;24.90;98722.13;5134046;27;20141;-83
2022/05/03 12:26:35;;;;;;;12.23;6.80;;;;;;;20.42;24.71;98756.03;5137863;27;20111;-83
2022/05/03 12:29:08;;;;;;;18.95;8.73;;;;;;;20.61;25.01;98741.81;5133272;28;20419;-82
2022/05/03 12:31:39;;;;;;;33.25;5.32;;;;;;;20.25;24.64;98680.06;5132862;28;20444;-84
2022/05/03 12:34:11;;;;;;;7.00;3.22;;;;;;;20.61;24.82;98720.56;5135078;27;20043;-83